createdAt,value
2023-01-29T00:00:51.755Z,101216.59
2023-01-29T00:03:54.474Z,101213.13
2023-01-29T00:06:56.772Z,101208.78
2023-01-29T00:09:59.223Z,101214.81
2023-01-29T00:13:01.325Z,101210.53
2023-01-29T00:16:04.254Z,101215.75
2023-01-29T00:19:07.287Z,101220.91
2023-01-29T00:22:09.764Z,101229.50
2023-01-29T00:25:12.075Z,101231.34
2023-01-29T00:28:15.297Z,101227.81
2023-01-29T00:31:21.923Z,101233.44
2023-01-29T00:34:24.533Z,101236.00
2023-01-29T00:37:26.703Z,101238.81
2023-01-29T00:40:49.115Z,101238.91
2023-01-29T00:44:10.366Z,101236.63
2023-01-29T00:47:31.065Z,101237.63
2023-01-29T00:50:33.326Z,101237.09
2023-01-29T00:53:35.747Z,101249.53
2023-01-29T00:56:38.575Z,101250.34
2023-01-29T00:59:41.128Z,101255.72
2023-01-29T01:03:02.159Z,101253.94
2023-01-29T01:06:06.499Z,101252.00
2023-01-29T01:09:28.865Z,101251.22
2023-01-29T01:12:31.762Z,101254.06
2023-01-29T01:15:37.304Z,101245.66
2023-01-29T01:18:40.137Z,101242.41
2023-01-29T01:21:45.505Z,101244.16
2023-01-29T01:24:48.057Z,101248.69
2023-01-29T01:27:54.663Z,101252.41
2023-01-29T01:30:57.155Z,101247.41
2023-01-29T01:33:59.426Z,101253.66
2023-01-29T01:37:01.885Z,101251.03
2023-01-29T01:40:18.211Z,101259.84
2023-01-29T01:43:21.193Z,101270.19
2023-01-29T01:46:31.133Z,101267.34
2023-01-29T01:49:33.744Z,101271.72
2023-01-29T01:52:43.758Z,101272.59
2023-01-29T01:55:52.903Z,101274.25
2023-01-29T01:58:58.446Z,101274.56
2023-01-29T02:02:19.805Z,101275.47
2023-01-29T02:05:41.522Z,101268.75
2023-01-29T02:09:11.858Z,101275.84
2023-01-29T02:12:16.316Z,101276.66
2023-01-29T02:15:18.570Z,101271.31
2023-01-29T02:18:21.929Z,101282.56
2023-01-29T02:21:34.642Z,101286.84
2023-01-29T02:24:59.607Z,101283.38
2023-01-29T02:28:35.078Z,101282.59
2023-01-29T02:31:44.533Z,101284.31
2023-01-29T02:35:32.691Z,101293.09
2023-01-29T02:39:00.503Z,101290.69
2023-01-29T02:42:12.023Z,101291.53
2023-01-29T02:45:31.198Z,101292.72
2023-01-29T02:48:43.814Z,101300.75
2023-01-29T02:51:59.339Z,101306.94
2023-01-29T02:55:15.987Z,101300.81
2023-01-29T02:58:47.323Z,101304.06
2023-01-29T03:01:56.140Z,101315.16
2023-01-29T03:05:03.876Z,101313.56
2023-01-29T03:08:10.479Z,101320.56
2023-01-29T03:11:14.930Z,101311.78
2023-01-29T03:14:55.336Z,101318.94
2023-01-29T03:18:05.646Z,101315.44
2023-01-29T03:21:32.545Z,101310.19
2023-01-29T03:25:08.599Z,101316.31
2023-01-29T03:28:34.237Z,101319.72
2023-01-29T03:31:56.348Z,101322.06
2023-01-29T03:35:04.105Z,101318.41
2023-01-29T03:38:10.108Z,101332.97
2023-01-29T03:41:36.766Z,101328.37
2023-01-29T03:45:00.463Z,101322.19
2023-01-29T03:48:44.560Z,101331.63
2023-01-29T03:52:16.227Z,101339.28
2023-01-29T03:55:22.921Z,101341.91
2023-01-29T03:58:42.600Z,101341.78
2023-01-29T04:01:52.564Z,101341.72
2023-01-29T04:04:59.866Z,101334.72
2023-01-29T04:08:06.758Z,101335.63
2023-01-29T04:11:14.360Z,101334.72
2023-01-29T04:14:17.670Z,101328.63
2023-01-29T04:17:24.828Z,101333.75
2023-01-29T04:20:27.321Z,101326.78
2023-01-29T04:23:29.983Z,101337.03
2023-01-29T04:26:32.123Z,101333.62
2023-01-29T04:29:47.699Z,101329.94
2023-01-29T04:32:56.009Z,101327.28
2023-01-29T04:36:23.337Z,101315.37
2023-01-29T04:39:32.399Z,101324.75
2023-01-29T04:42:42.011Z,101318.81
2023-01-29T04:46:13.765Z,101327.34
2023-01-29T04:49:31.539Z,101330.69
2023-01-29T04:52:48.947Z,101330.72
2023-01-29T04:55:56.876Z,101330.66
2023-01-29T04:59:07.991Z,101324.78
2023-01-29T05:02:12.277Z,101331.87
2023-01-29T05:05:18.040Z,101338.59
2023-01-29T05:08:23.357Z,101334.34
2023-01-29T05:11:26.310Z,101325.69
2023-01-29T05:14:34.069Z,101323.03
2023-01-29T05:17:36.436Z,101333.53
2023-01-29T05:20:41.407Z,101336.00
2023-01-29T05:23:53.276Z,101329.22
2023-01-29T05:27:14.537Z,101336.97
2023-01-29T05:30:17.227Z,101324.91
2023-01-29T05:33:29.133Z,101331.03
2023-01-29T05:36:31.423Z,101327.53
2023-01-29T05:39:33.935Z,101331.81
2023-01-29T05:42:36.300Z,101334.63
2023-01-29T05:45:38.710Z,101330.09
2023-01-29T05:48:40.919Z,101338.59
2023-01-29T05:51:43.469Z,101328.00
2023-01-29T05:54:45.928Z,101321.97
2023-01-29T05:57:48.439Z,101328.00
2023-01-29T06:00:50.555Z,101338.56
2023-01-29T06:03:53.038Z,101337.75
2023-01-29T06:06:55.216Z,101347.09
2023-01-29T06:09:57.680Z,101338.50
2023-01-29T06:12:59.890Z,101350.50
2023-01-29T06:16:06.244Z,101346.31
2023-01-29T06:19:08.453Z,101350.72
2023-01-29T06:22:10.947Z,101352.41
2023-01-29T06:25:13.285Z,101357.69
2023-01-29T06:28:15.737Z,101369.13
2023-01-29T06:31:37.929Z,101367.31
2023-01-29T06:34:41.087Z,101383.03
2023-01-29T06:37:43.332Z,101380.38
2023-01-29T06:40:45.837Z,101393.47
2023-01-29T06:43:48.201Z,101391.69
2023-01-29T06:46:50.671Z,101392.72
2023-01-29T06:49:52.897Z,101399.78
2023-01-29T06:52:55.354Z,101404.19
2023-01-29T06:55:57.614Z,101397.25
2023-01-29T06:59:00.940Z,101404.09
2023-01-29T07:02:03.807Z,101405.00
2023-01-29T07:05:06.549Z,101397.25
2023-01-29T07:08:09.668Z,101401.53
2023-01-29T07:11:12.798Z,101392.91
2023-01-29T07:14:15.047Z,101398.84
2023-01-29T07:17:17.463Z,101405.97
2023-01-29T07:20:19.578Z,101395.56
2023-01-29T07:23:22.218Z,101399.03
2023-01-29T07:26:24.419Z,101393.78
2023-01-29T07:29:26.944Z,101381.50
2023-01-29T07:32:29.133Z,101387.41
2023-01-29T07:35:32.513Z,101385.56
2023-01-29T07:38:34.826Z,101377.81
2023-01-29T07:41:37.304Z,101376.16
2023-01-29T07:44:43.900Z,101377.75
2023-01-29T07:47:52.417Z,101375.03
2023-01-29T07:50:56.180Z,101362.94
2023-01-29T07:53:58.626Z,101373.31
2023-01-29T07:57:00.930Z,101370.41
2023-01-29T08:00:03.740Z,101380.22
2023-01-29T08:03:17.236Z,101381.00
2023-01-29T08:06:19.860Z,101380.06
2023-01-29T08:09:22.004Z,101375.75
2023-01-29T08:12:24.600Z,101378.91
2023-01-29T08:15:27.539Z,101385.97
2023-01-29T08:18:31.559Z,101381.53
2023-01-29T08:21:33.898Z,101380.44
2023-01-29T08:24:47.930Z,101389.94
2023-01-29T08:27:59.445Z,101386.59
2023-01-29T08:31:02.032Z,101398.19
2023-01-29T08:34:04.283Z,101392.94
2023-01-29T08:37:06.982Z,101403.00
2023-01-29T08:40:10.878Z,101401.22
2023-01-29T08:43:13.808Z,101398.78
2023-01-29T08:46:16.021Z,101406.75
2023-01-29T08:49:18.694Z,101429.50
2023-01-29T08:52:20.846Z,101428.62
2023-01-29T08:55:23.260Z,101425.25
2023-01-29T08:58:25.465Z,101434.78
2023-01-29T09:01:28.016Z,101438.16
2023-01-29T09:04:30.216Z,101445.16
2023-01-29T09:07:33.262Z,101439.22
2023-01-29T09:10:35.807Z,101442.47
2023-01-29T09:13:38.286Z,101440.84
2023-01-29T09:16:40.930Z,101442.47
2023-01-29T09:19:43.449Z,101444.50
2023-01-29T09:22:46.687Z,101445.88
2023-01-29T09:25:49.152Z,101448.75
2023-01-29T09:28:51.273Z,101441.81
2023-01-29T09:31:53.904Z,101443.75
2023-01-29T09:34:56.981Z,101439.97
2023-01-29T09:37:59.788Z,101454.53
2023-01-29T09:41:24.414Z,101453.69
2023-01-29T09:44:54.332Z,101448.06
2023-01-29T09:48:00.473Z,101454.88
2023-01-29T09:51:08.483Z,101457.19
2023-01-29T09:54:22.863Z,101460.00
2023-01-29T09:57:49.972Z,101457.59
2023-01-29T10:01:01.974Z,101459.22
2023-01-29T10:04:23.186Z,101456.50
2023-01-29T10:07:28.463Z,101454.75
2023-01-29T10:10:51.598Z,101458.25
2023-01-29T10:14:04.397Z,101457.81
2023-01-29T10:17:24.893Z,101457.56
2023-01-29T10:20:45.471Z,101464.53
2023-01-29T10:23:53.874Z,101476.22
2023-01-29T10:26:56.127Z,101461.75
2023-01-29T10:30:00.598Z,101456.19
2023-01-29T10:33:05.759Z,101464.66
2023-01-29T10:36:15.164Z,101456.38
2023-01-29T10:39:22.310Z,101461.28
2023-01-29T10:42:41.343Z,101451.28
2023-01-29T10:45:53.505Z,101457.00
2023-01-29T10:49:29.699Z,101449.53
2023-01-29T10:52:54.751Z,101442.22
2023-01-29T10:56:21.832Z,101443.13
2023-01-29T10:59:32.874Z,101436.94
2023-01-29T11:02:35.659Z,101440.97
2023-01-29T11:05:44.357Z,101422.56
2023-01-29T11:08:56.572Z,101407.66
2023-01-29T11:12:13.689Z,101404.28
2023-01-29T11:15:32.359Z,101414.22
2023-01-29T11:18:52.824Z,101423.13
2023-01-29T11:22:01.118Z,101401.28
2023-01-29T11:25:18.292Z,101401.66
2023-01-29T11:28:40.273Z,101383.06
2023-01-29T11:31:42.691Z,101392.69
2023-01-29T11:35:14.387Z,101375.59
2023-01-29T11:38:16.485Z,101373.91
2023-01-29T11:41:22.248Z,101362.56
2023-01-29T11:44:40.774Z,101372.84
2023-01-29T11:47:48.198Z,101366.72
2023-01-29T11:51:10.504Z,101348.78
2023-01-29T11:54:19.693Z,101344.97
2023-01-29T11:57:28.468Z,101346.28
2023-01-29T12:00:35.899Z,101336.53
2023-01-29T12:03:44.744Z,101334.22
2023-01-29T12:06:51.982Z,101335.81
2023-01-29T12:09:57.438Z,101340.25
2023-01-29T12:13:20.107Z,101346.53
2023-01-29T12:16:29.145Z,101333.81
2023-01-29T12:19:36.180Z,101339.59
2023-01-29T12:23:03.264Z,101335.09
2023-01-29T12:26:12.769Z,101329.88
2023-01-29T12:29:27.858Z,101327.25
2023-01-29T12:32:55.505Z,101322.97
2023-01-29T12:36:10.911Z,101323.75
2023-01-29T12:39:17.622Z,101318.63
2023-01-29T12:42:22.722Z,101324.22
2023-01-29T12:45:28.205Z,101339.03
2023-01-29T12:48:36.786Z,101333.34
2023-01-29T12:51:59.063Z,101321.09
2023-01-29T12:55:07.885Z,101320.03
2023-01-29T12:58:16.055Z,101322.16
2023-01-29T13:01:28.583Z,101321.84
2023-01-29T13:04:40.199Z,101322.75
2023-01-29T13:07:50.612Z,101310.75
2023-01-29T13:10:54.793Z,101305.22
2023-01-29T13:14:04.066Z,101302.34
2023-01-29T13:17:27.963Z,101296.78
2023-01-29T13:20:32.577Z,101284.50
2023-01-29T13:23:37.134Z,101289.59
2023-01-29T13:26:41.279Z,101281.94
2023-01-29T13:29:44.256Z,101273.28
2023-01-29T13:32:52.580Z,101266.56
2023-01-29T13:36:00.177Z,101268.63
2023-01-29T13:39:07.525Z,101264.09
2023-01-29T13:42:17.560Z,101260.69
2023-01-29T13:45:51.553Z,101268.69
2023-01-29T13:48:58.124Z,101274.75
2023-01-29T13:52:23.219Z,101279.09
2023-01-29T13:55:31.510Z,101279.84
2023-01-29T13:58:33.931Z,101273.00
2023-01-29T14:01:48.486Z,101277.53
2023-01-29T14:04:51.370Z,101276.06
2023-01-29T14:07:53.652Z,101260.03
2023-01-29T14:11:19.121Z,101268.97
2023-01-29T14:14:49.186Z,101281.41
2023-01-29T14:18:02.540Z,101283.94
2023-01-29T14:21:23.886Z,101283.94
2023-01-29T14:24:30.825Z,101287.84
2023-01-29T14:27:35.587Z,101289.81
2023-01-29T14:30:40.337Z,101292.31
2023-01-29T14:33:43.599Z,101293.75
2023-01-29T14:36:55.091Z,101282.94
2023-01-29T14:39:59.846Z,101284.50
2023-01-29T14:43:04.363Z,101291.88
2023-01-29T14:46:34.977Z,101286.94
2023-01-29T14:50:26.514Z,101294.75
2023-01-29T14:53:51.423Z,101290.56
2023-01-29T14:57:05.736Z,101281.91
2023-01-29T15:00:20.307Z,101280.19
2023-01-29T15:03:35.447Z,101284.72
2023-01-29T15:07:16.351Z,101285.63
2023-01-29T15:10:40.002Z,101282.09
2023-01-29T15:13:56.490Z,101286.41
2023-01-29T15:17:24.957Z,101283.84
2023-01-29T15:20:36.141Z,101287.38
2023-01-29T15:23:39.021Z,101281.56
2023-01-29T15:26:43.067Z,101279.94
2023-01-29T15:29:59.218Z,101269.56
2023-01-29T15:33:03.079Z,101271.37
2023-01-29T15:36:07.677Z,101269.78
2023-01-29T15:39:13.271Z,101272.34
2023-01-29T15:42:21.673Z,101277.59
2023-01-29T15:45:29.262Z,101275.00
2023-01-29T15:48:36.567Z,101283.84
2023-01-29T15:51:39.379Z,101284.84
2023-01-29T15:54:41.980Z,101288.47
2023-01-29T15:57:45.274Z,101293.69
2023-01-29T16:00:55.424Z,101291.03
2023-01-29T16:04:03.078Z,101298.00
2023-01-29T16:07:05.604Z,101297.09
2023-01-29T16:10:17.483Z,101299.75
2023-01-29T16:13:26.194Z,101288.53
2023-01-29T16:16:29.021Z,101292.81
2023-01-29T16:19:31.386Z,101289.44
2023-01-29T16:22:37.758Z,101294.81
2023-01-29T16:25:39.981Z,101304.41
2023-01-29T16:28:44.282Z,101305.13
2023-01-29T16:31:48.429Z,101313.00
2023-01-29T16:34:57.448Z,101308.72
2023-01-29T16:38:04.868Z,101323.31
2023-01-29T16:41:15.398Z,101327.66
2023-01-29T16:44:20.864Z,101322.50
2023-01-29T16:47:43.309Z,101326.06
2023-01-29T16:50:54.584Z,101328.56
2023-01-29T16:54:11.934Z,101321.56
2023-01-29T16:57:19.480Z,101330.34
2023-01-29T17:00:28.597Z,101331.97
2023-01-29T17:03:33.722Z,101327.66
2023-01-29T17:06:36.877Z,101327.72
2023-01-29T17:09:39.080Z,101339.00
2023-01-29T17:12:41.918Z,101329.53
2023-01-29T17:15:47.418Z,101322.66
2023-01-29T17:18:50.032Z,101325.25
2023-01-29T17:21:52.209Z,101330.44
2023-01-29T17:24:54.878Z,101326.22
2023-01-29T17:28:01.589Z,101325.41
2023-01-29T17:31:06.924Z,101327.09
2023-01-29T17:34:14.131Z,101324.53
2023-01-29T17:37:17.191Z,101328.91
2023-01-29T17:40:42.895Z,101310.75
2023-01-29T17:43:45.760Z,101316.81
2023-01-29T17:46:48.552Z,101304.75
2023-01-29T17:49:51.015Z,101301.37
2023-01-29T17:52:53.912Z,101307.47
2023-01-29T17:55:56.459Z,101298.78
2023-01-29T17:58:58.636Z,101291.88
2023-01-29T18:02:01.307Z,101286.66
2023-01-29T18:05:04.009Z,101277.16
2023-01-29T18:08:06.231Z,101278.94
2023-01-29T18:11:11.329Z,101273.75
2023-01-29T18:14:14.729Z,101280.72
2023-01-29T18:17:22.237Z,101280.72
2023-01-29T18:20:27.267Z,101272.88
2023-01-29T18:23:31.189Z,101273.78
2023-01-29T18:26:35.973Z,101267.81
2023-01-29T18:29:38.556Z,101259.94
2023-01-29T18:32:40.789Z,101269.50
2023-01-29T18:35:45.119Z,101263.47
2023-01-29T18:38:47.312Z,101260.94
2023-01-29T18:41:49.768Z,101267.91
2023-01-29T18:44:52.072Z,101262.72
2023-01-29T18:47:54.857Z,101260.97
2023-01-29T18:50:57.041Z,101267.06
2023-01-29T18:53:59.578Z,101267.13
2023-01-29T18:57:12.903Z,101263.59
2023-01-29T19:00:17.011Z,101268.00
2023-01-29T19:03:19.192Z,101259.38
2023-01-29T19:06:21.732Z,101261.09
2023-01-29T19:09:24.012Z,101259.34
2023-01-29T19:12:26.587Z,101270.59
2023-01-29T19:15:29.032Z,101270.53
2023-01-29T19:18:31.629Z,101265.34
2023-01-29T19:21:36.736Z,101258.44
2023-01-29T19:24:39.310Z,101253.28
2023-01-29T19:27:41.460Z,101251.59
2023-01-29T19:30:44.337Z,101252.41
2023-01-29T19:33:46.552Z,101250.72
2023-01-29T19:36:49.053Z,101252.44
2023-01-29T19:39:51.373Z,101254.16
2023-01-29T19:42:55.517Z,101246.25
2023-01-29T19:45:59.199Z,101244.56
2023-01-29T19:49:03.510Z,101240.25
2023-01-29T19:52:07.898Z,101239.41
2023-01-29T19:55:10.510Z,101242.91
2023-01-29T19:58:12.752Z,101244.63
2023-01-29T20:01:20.618Z,101236.00
2023-01-29T20:04:23.083Z,101244.63
2023-01-29T20:07:25.215Z,101247.16
2023-01-29T20:10:27.994Z,101249.75
2023-01-29T20:13:30.125Z,101240.28
2023-01-29T20:16:32.813Z,101238.56
2023-01-29T20:19:35.021Z,101243.72
2023-01-29T20:22:37.509Z,101239.41
2023-01-29T20:25:40.299Z,101239.41
2023-01-29T20:28:43.055Z,101225.66
2023-01-29T20:31:45.279Z,101229.13
2023-01-29T20:34:51.941Z,101216.16
2023-01-29T20:37:54.392Z,101216.13
2023-01-29T20:41:17.523Z,101213.53
2023-01-29T20:44:19.701Z,101219.56
2023-01-29T20:47:22.213Z,101224.66
2023-01-29T20:50:24.396Z,101204.81
2023-01-29T20:53:26.879Z,101209.19
2023-01-29T20:56:36.482Z,101216.13
2023-01-29T20:59:45.077Z,101223.03
2023-01-29T21:02:47.792Z,101223.91
2023-01-29T21:05:52.197Z,101218.75
2023-01-29T21:08:54.380Z,101223.97
2023-01-29T21:11:56.914Z,101223.06
2023-01-29T21:14:59.466Z,101233.34
2023-01-29T21:18:04.454Z,101236.91
2023-01-29T21:21:06.693Z,101235.22
2023-01-29T21:24:09.577Z,101244.75
2023-01-29T21:27:11.746Z,101242.97
2023-01-29T21:30:14.519Z,101242.12
2023-01-29T21:33:16.812Z,101252.50
2023-01-29T21:36:19.281Z,101242.94
2023-01-29T21:39:24.236Z,101251.56
2023-01-29T21:42:45.390Z,101234.31
2023-01-29T21:45:55.018Z,101248.13
2023-01-29T21:48:57.420Z,101249.03
2023-01-29T21:51:59.542Z,101249.06
2023-01-29T21:55:02.183Z,101240.47
2023-01-29T21:58:04.434Z,101238.75
2023-01-29T22:01:18.408Z,101233.53
2023-01-29T22:04:29.840Z,101229.22
2023-01-29T22:07:32.075Z,101224.94
2023-01-29T22:10:36.403Z,101218.81
2023-01-29T22:13:38.738Z,101216.22
2023-01-29T22:16:41.219Z,101217.97
2023-01-29T22:19:43.746Z,101207.66
2023-01-29T22:22:46.183Z,101209.41
2023-01-29T22:25:48.511Z,101204.22
2023-01-29T22:28:51.184Z,101202.50
2023-01-29T22:31:53.418Z,101192.94
2023-01-29T22:34:55.880Z,101192.03
2023-01-29T22:37:58.063Z,101190.25
2023-01-29T22:41:00.870Z,101185.06
2023-01-29T22:44:03.322Z,101183.31
2023-01-29T22:47:05.798Z,101180.72
2023-01-29T22:50:08.609Z,101174.66
2023-01-29T22:53:11.070Z,101167.72
2023-01-29T22:56:13.303Z,101170.34
2023-01-29T22:59:15.838Z,101169.47
2023-01-29T23:02:17.983Z,101164.25
2023-01-29T23:05:20.490Z,101159.97
2023-01-29T23:08:22.700Z,101161.69
2023-01-29T23:11:25.246Z,101157.41
2023-01-29T23:14:27.376Z,101166.94
2023-01-29T23:17:29.794Z,101157.41
2023-01-29T23:20:32.008Z,101154.00
2023-01-29T23:23:36.038Z,101155.81
2023-01-29T23:26:56.512Z,101159.28
2023-01-29T23:29:58.970Z,101154.97
2023-01-29T23:33:01.243Z,101149.81
2023-01-29T23:36:04.603Z,101138.66
2023-01-29T23:39:06.879Z,101141.31
2023-01-29T23:42:09.349Z,101132.72
2023-01-29T23:45:11.528Z,101133.56
2023-01-29T23:48:14.065Z,101130.09
2023-01-29T23:51:16.321Z,101129.28
2023-01-29T23:54:18.919Z,101127.59
2023-01-29T23:57:21.132Z,101130.19
